createdAt,value
2022-10-08T00:06:13.904Z,51.52
2022-10-08T00:12:59.362Z,51.34
2022-10-08T00:19:47.280Z,51.45
2022-10-08T00:26:41.103Z,51.21
2022-10-08T00:33:27.561Z,51.56
2022-10-08T00:40:15.968Z,51.55
2022-10-08T00:47:01.564Z,51.31
2022-10-08T00:53:47.190Z,51.46
2022-10-08T01:00:36.502Z,51.80
2022-10-08T01:07:38.030Z,51.50
2022-10-08T01:14:42.082Z,51.66
2022-10-08T01:21:44.210Z,51.52
2022-10-08T01:28:40.639Z,51.83
2022-10-08T01:35:33.635Z,51.60
2022-10-08T01:42:23.619Z,51.64
2022-10-08T01:49:17.693Z,51.98
2022-10-08T01:56:09.129Z,51.65
2022-10-08T02:02:58.643Z,51.75
2022-10-08T02:09:53.536Z,51.39
2022-10-08T02:16:48.766Z,51.84
2022-10-08T02:23:40.281Z,51.91
2022-10-08T02:30:35.874Z,51.71
2022-10-08T02:37:27.161Z,51.62
2022-10-08T02:44:19.184Z,51.75
2022-10-08T03:05:03.384Z,52.12
2022-10-08T03:11:50.289Z,51.90
2022-10-08T03:18:37.438Z,52.40
2022-10-08T03:25:26.781Z,52.14
2022-10-08T03:32:14.097Z,52.48
2022-10-08T03:39:00.767Z,52.37
2022-10-08T03:45:59.826Z,52.47
2022-10-08T03:52:46.672Z,52.25
2022-10-08T03:59:33.312Z,52.08
2022-10-08T04:06:23.236Z,51.68
2022-10-08T04:20:34.613Z,51.46
2022-10-08T04:27:22.577Z,51.42
2022-10-08T04:34:07.901Z,51.66
2022-10-08T04:41:04.994Z,51.70
2022-10-08T04:47:52.916Z,51.51
2022-10-08T04:54:38.271Z,51.72
2022-10-08T05:01:24.951Z,51.60
2022-10-08T05:08:14.165Z,51.52
2022-10-08T05:14:59.533Z,51.24
2022-10-08T05:21:44.921Z,50.78
2022-10-08T05:28:33.146Z,50.91
2022-10-08T05:35:19.280Z,50.77
2022-10-08T05:42:06.512Z,50.99
2022-10-08T05:48:56.737Z,50.60
2022-10-08T05:55:42.142Z,50.42
2022-10-08T06:02:27.583Z,50.43
2022-10-08T06:09:18.237Z,50.47
2022-10-08T06:16:06.543Z,50.62
2022-10-08T06:22:51.929Z,50.44
2022-10-08T06:29:39.825Z,50.72
2022-10-08T06:36:28.008Z,50.58
2022-10-08T06:43:16.620Z,50.62
2022-10-08T06:50:04.691Z,51.15
2022-10-08T06:56:50.201Z,51.08
2022-10-08T07:03:35.759Z,51.63
2022-10-08T07:10:23.774Z,52.27
2022-10-08T07:17:09.140Z,52.45
2022-10-08T07:23:54.848Z,53.27
2022-10-08T07:30:42.785Z,53.44
2022-10-08T07:37:28.173Z,54.12
2022-10-08T07:44:15.009Z,53.94
2022-10-08T07:51:11.139Z,54.08
2022-10-08T07:57:56.909Z,53.92
2022-10-08T08:04:42.256Z,54.10
2022-10-08T08:11:30.264Z,54.00
2022-10-08T08:18:15.708Z,54.35
2022-10-08T08:25:01.058Z,54.04
2022-10-08T08:31:51.701Z,54.26
2022-10-08T08:38:38.932Z,54.49
2022-10-08T08:45:47.622Z,54.21
2022-10-08T08:52:42.161Z,54.28
2022-10-08T08:59:31.189Z,53.88
2022-10-08T09:06:22.736Z,54.07
2022-10-08T09:13:21.129Z,53.40
2022-10-08T09:20:08.528Z,52.87
2022-10-08T09:26:58.981Z,52.76
2022-10-08T09:33:49.219Z,52.60
2022-10-08T09:40:36.190Z,51.93
2022-10-08T09:47:25.015Z,51.79
2022-10-08T09:54:18.086Z,51.47
2022-10-08T10:01:09.244Z,50.73
2022-10-08T10:07:55.651Z,50.29
2022-10-08T10:14:49.506Z,50.56
2022-10-08T10:21:43.435Z,50.00
2022-10-08T10:28:42.405Z,49.87
2022-10-08T10:35:33.225Z,49.52
2022-10-08T10:42:24.076Z,49.64
2022-10-08T10:49:17.720Z,49.82
2022-10-08T10:56:13.444Z,49.61
2022-10-08T11:03:09.833Z,49.28
2022-10-08T11:10:04.377Z,49.76
2022-10-08T11:17:06.169Z,49.09
2022-10-08T11:24:19.681Z,48.82
2022-10-08T11:31:16.826Z,48.66
2022-10-08T11:38:13.642Z,48.47
2022-10-08T11:45:16.578Z,47.57
2022-10-08T11:52:17.585Z,47.77
2022-10-08T11:59:12.686Z,47.10
2022-10-08T12:06:01.879Z,47.36
2022-10-08T12:13:05.065Z,47.26
2022-10-08T12:20:27.052Z,46.99
2022-10-08T12:27:37.904Z,46.69
2022-10-08T12:34:24.536Z,46.47
2022-10-08T12:41:25.400Z,46.31
2022-10-08T12:48:20.096Z,46.11
2022-10-08T12:55:08.737Z,45.94
2022-10-08T13:01:58.185Z,46.12
2022-10-08T13:08:45.006Z,45.16
2022-10-08T13:15:31.086Z,45.16
2022-10-08T13:22:30.034Z,45.13
2022-10-08T13:29:33.705Z,45.34
2022-10-08T13:36:25.303Z,45.16
2022-10-08T13:43:14.213Z,44.85
2022-10-08T13:50:03.247Z,45.01
2022-10-08T13:56:48.571Z,44.71
2022-10-08T14:03:36.521Z,44.43
2022-10-08T14:10:22.292Z,44.24
2022-10-08T14:17:07.681Z,43.96
2022-10-08T14:23:55.608Z,43.45
2022-10-08T14:30:40.974Z,42.35
2022-10-08T14:37:26.333Z,43.01
2022-10-08T14:44:16.658Z,42.13
2022-10-08T14:51:02.513Z,42.20
2022-10-08T14:57:48.164Z,42.11
2022-10-08T15:04:36.149Z,41.98
2022-10-08T15:11:21.493Z,42.19
2022-10-08T15:18:06.972Z,41.53
2022-10-08T15:24:55.117Z,41.55
2022-10-08T15:31:40.761Z,40.75
2022-10-08T15:38:26.629Z,40.53
2022-10-08T15:45:14.773Z,40.84
2022-10-08T15:52:00.127Z,40.44
2022-10-08T15:58:50.827Z,40.96
2022-10-08T16:05:39.462Z,40.79
2022-10-08T16:12:24.861Z,40.57
2022-10-08T16:19:16.155Z,40.90
2022-10-08T16:26:06.549Z,41.03
2022-10-08T16:32:51.923Z,40.92
2022-10-08T16:39:37.313Z,41.04
2022-10-08T16:46:29.253Z,41.45
2022-10-08T16:53:14.793Z,41.81
2022-10-08T17:00:00.367Z,41.56
2022-10-08T17:06:51.083Z,42.02
2022-10-08T17:13:37.041Z,42.06
2022-10-08T17:20:22.409Z,42.06
2022-10-08T17:27:11.824Z,41.96
2022-10-08T17:33:57.321Z,42.05
2022-10-08T17:40:43.088Z,42.02
2022-10-08T17:47:31.057Z,42.44
2022-10-08T17:54:20.015Z,42.78
2022-10-08T18:01:10.365Z,42.91
2022-10-08T18:07:58.392Z,43.04
2022-10-08T18:14:43.989Z,42.66
2022-10-08T18:21:29.759Z,42.68
2022-10-08T18:28:19.909Z,42.90
2022-10-08T18:35:05.460Z,43.03
2022-10-08T18:41:52.621Z,42.71
2022-10-08T18:48:41.141Z,42.71
2022-10-08T18:55:26.453Z,43.27
2022-10-08T19:02:13.581Z,42.97
2022-10-08T19:09:03.292Z,43.08
2022-10-08T19:15:48.696Z,43.66
2022-10-08T19:22:34.067Z,43.43
2022-10-08T19:29:25.349Z,43.54
2022-10-08T19:36:11.899Z,43.27
2022-10-08T19:42:57.797Z,43.73
2022-10-08T19:49:45.949Z,43.68
2022-10-08T19:56:32.955Z,43.61
2022-10-08T20:03:18.328Z,43.61
2022-10-08T20:10:06.412Z,43.74
2022-10-08T20:16:52.014Z,43.85
2022-10-08T20:23:40.149Z,43.75
2022-10-08T20:30:28.376Z,43.77
2022-10-08T20:37:13.852Z,43.81
2022-10-08T20:44:00.543Z,43.71
2022-10-08T20:50:48.532Z,43.73
2022-10-08T20:57:33.908Z,44.14
2022-10-08T21:04:19.389Z,44.18
2022-10-08T21:11:09.360Z,44.17
2022-10-08T21:17:54.737Z,44.14
2022-10-08T21:24:40.196Z,43.93
2022-10-08T21:31:29.881Z,44.33
2022-10-08T21:38:15.246Z,44.42
2022-10-08T21:45:01.060Z,44.57
2022-10-08T21:51:49.172Z,44.44
2022-10-08T21:58:39.554Z,44.33
2022-10-08T22:05:29.154Z,44.44
2022-10-08T22:12:17.804Z,44.69
2022-10-08T22:19:04.114Z,44.78
2022-10-08T22:25:56.497Z,44.80
2022-10-08T22:32:44.461Z,44.86
2022-10-08T22:39:29.949Z,45.14
2022-10-08T22:46:20.144Z,44.88
2022-10-08T22:53:08.062Z,44.94
2022-10-08T22:59:53.375Z,44.93
2022-10-08T23:06:38.755Z,44.98
2022-10-08T23:13:27.393Z,45.15
2022-10-08T23:20:13.121Z,45.19
2022-10-08T23:26:58.485Z,45.14
2022-10-08T23:33:48.990Z,45.20
2022-10-08T23:40:34.435Z,45.24
2022-10-08T23:47:19.811Z,45.24
2022-10-08T23:54:08.329Z,45.41
